Time;durP1;ratioP1;P1;durP2;ratioP2;P2;SDS_P1;SDS_P2;PMS_P1;PMS_P2;Temp;Humidity;BMP_temperature;BMP_pressure;BME280_temperature;BME280_humidity;BME280_pressure;Samples;Min_cycle;Max_cycle;Signal;HPM_P1;HPM_P2
2023/08/01 00:01:11;;;;;;;6.53;4.35;;;;;;;;;;5016390;28;20164;-78
2023/08/01 00:03:38;;;;;;;6.82;4.05;;;;;;;;;;5016000;28;20042;-78
2023/08/01 00:06:04;;;;;;;6.43;4.10;;;;;;;;;;5018367;28;20046;-78
2023/08/01 00:08:31;;;;;;;7.00;4.15;;;;;;;;;;5017826;28;20045;-78
2023/08/01 00:10:57;;;;;;;5.85;3.80;;;;;;;;;;5016083;28;20045;-78
2023/08/01 00:13:24;;;;;;;6.30;3.38;;;;;;;;;;5015683;28;20050;-78
2023/08/01 00:15:52;;;;;;;5.50;3.80;;;;;;;;;;5015777;28;20049;-77
2023/08/01 00:18:18;;;;;;;6.82;3.95;;;;;;;;;;5015611;28;20046;-77
2023/08/01 00:20:45;;;;;;;6.28;4.20;;;;;;;;;;5015503;28;20049;-78
2023/08/01 00:23:12;;;;;;;5.38;3.15;;;;;;;;;;5014991;28;20566;-78
2023/08/01 00:25:38;;;;;;;5.22;3.13;;;;;;;;;;5015245;28;20057;-78
2023/08/01 00:28:05;;;;;;;5.65;3.00;;;;;;;;;;5015028;28;20050;-78
2023/08/01 00:30:31;;;;;;;5.25;2.70;;;;;;;;;;5014820;28;20053;-78
2023/08/01 00:32:59;;;;;;;5.65;2.80;;;;;;;;;;5014527;28;20389;-78
2023/08/01 00:35:26;;;;;;;5.60;3.10;;;;;;;;;;5013757;28;20096;-78
2023/08/01 00:37:53;;;;;;;3.97;2.47;;;;;;;;;;5015059;28;20073;-78
2023/08/01 00:40:19;;;;;;;6.43;3.20;;;;;;;;;;5009148;28;20485;-78
2023/08/01 00:42:46;;;;;;;5.30;2.78;;;;;;;;;;5014430;28;20054;-78
2023/08/01 00:45:13;;;;;;;6.32;3.08;;;;;;;;;;5016067;28;20053;-78
2023/08/01 00:47:40;;;;;;;5.18;3.13;;;;;;;;;;5017174;28;20046;-78
2023/08/01 00:50:09;;;;;;;5.15;3.05;;;;;;;;;;5016729;28;20052;-79
2023/08/01 00:52:35;;;;;;;5.68;3.17;;;;;;;;;;5015542;28;20049;-78
2023/08/01 00:55:02;;;;;;;4.38;2.50;;;;;;;;;;5014404;28;20072;-77
2023/08/01 00:57:28;;;;;;;4.20;2.60;;;;;;;;;;5014645;28;20086;-78
2023/08/01 00:59:55;;;;;;;4.55;2.75;;;;;;;;;;5014886;28;20060;-78
2023/08/01 01:02:22;;;;;;;5.07;2.97;;;;;;;;;;5016066;28;20408;-79
2023/08/01 01:04:48;;;;;;;7.03;3.58;;;;;;;;;;5017230;28;20473;-78
2023/08/01 01:07:18;;;;;;;5.13;3.45;;;;;;;;;;5017793;28;20046;-79
2023/08/01 01:09:44;;;;;;;7.07;3.30;;;;;;;;;;5018106;28;20057;-79
2023/08/01 01:12:11;;;;;;;5.38;3.10;;;;;;;;;;5017488;28;20301;-79
2023/08/01 01:14:37;;;;;;;5.13;3.42;;;;;;;;;;5018126;28;20513;-79
2023/08/01 01:17:04;;;;;;;6.00;3.30;;;;;;;;;;5018345;28;20050;-79
2023/08/01 01:19:31;;;;;;;5.10;3.40;;;;;;;;;;5018283;28;20073;-78
2023/08/01 01:21:59;;;;;;;6.15;2.97;;;;;;;;;;5017485;28;20420;-79
2023/08/01 01:24:27;;;;;;;5.68;3.45;;;;;;;;;;5018765;28;20050;-78
2023/08/01 01:26:55;;;;;;;4.78;2.85;;;;;;;;;;5017927;28;20100;-79
2023/08/01 01:29:24;;;;;;;6.07;3.28;;;;;;;;;;5018034;28;20050;-79
2023/08/01 01:31:51;;;;;;;5.85;3.20;;;;;;;;;;5018501;28;20050;-78
2023/08/01 01:34:17;;;;;;;5.70;3.60;;;;;;;;;;5018501;28;20050;-79
2023/08/01 01:36:44;;;;;;;6.70;3.95;;;;;;;;;;5017586;28;20041;-79
2023/08/01 01:39:12;;;;;;;5.53;3.60;;;;;;;;;;5018740;28;20074;-79
2023/08/01 01:41:38;;;;;;;5.13;3.50;;;;;;;;;;5018226;28;20133;-79
2023/08/01 01:44:05;;;;;;;6.28;3.50;;;;;;;;;;5018682;28;20046;-79
2023/08/01 01:46:32;;;;;;;5.65;3.78;;;;;;;;;;5017002;28;20050;-78
2023/08/01 01:48:58;;;;;;;6.68;3.83;;;;;;;;;;5014887;28;20136;-79
2023/08/01 01:51:26;;;;;;;6.22;3.70;;;;;;;;;;5014830;28;20045;-78
2023/08/01 01:53:53;;;;;;;5.95;3.30;;;;;;;;;;5014562;28;20045;-78
2023/08/01 01:56:21;;;;;;;5.72;3.40;;;;;;;;;;5014230;28;20054;-77
2023/08/01 01:58:47;;;;;;;5.18;3.30;;;;;;;;;;5015422;28;20500;-78
2023/08/01 02:01:14;;;;;;;6.65;4.10;;;;;;;;;;5014838;28;20054;-78
2023/08/01 02:03:40;;;;;;;6.32;3.88;;;;;;;;;;5014716;28;20050;-78
2023/08/01 02:06:07;;;;;;;5.90;3.88;;;;;;;;;;5014185;28;20045;-78
2023/08/01 02:08:33;;;;;;;5.85;4.05;;;;;;;;;;5016289;28;20045;-77
2023/08/01 02:11:00;;;;;;;6.10;4.18;;;;;;;;;;5015350;28;20057;-77
2023/08/01 02:13:29;;;;;;;7.07;4.20;;;;;;;;;;5015538;28;20228;-78
2023/08/01 02:15:56;;;;;;;7.18;4.55;;;;;;;;;;5014725;28;20049;-78
2023/08/01 02:18:22;;;;;;;6.95;4.18;;;;;;;;;;5014822;28;20128;-78
2023/08/01 02:20:49;;;;;;;6.60;3.80;;;;;;;;;;5015007;28;20050;-79
2023/08/01 02:23:15;;;;;;;6.28;4.03;;;;;;;;;;5014720;28;20133;-79
2023/08/01 02:25:42;;;;;;;5.55;3.92;;;;;;;;;;5014406;28;20432;-76
2023/08/01 02:28:09;;;;;;;6.97;4.40;;;;;;;;;;5013922;28;20057;-77
2023/08/01 02:30:37;;;;;;;5.85;3.53;;;;;;;;;;5011609;28;20137;-76
2023/08/01 02:33:04;;;;;;;6.60;4.05;;;;;;;;;;5011993;28;20065;-77
2023/08/01 02:35:30;;;;;;;6.93;4.10;;;;;;;;;;5011910;28;20045;-77
2023/08/01 02:37:57;;;;;;;6.80;3.90;;;;;;;;;;5011816;28;20053;-77
2023/08/01 02:40:24;;;;;;;5.47;3.63;;;;;;;;;;5011933;28;20053;-78
2023/08/01 02:42:50;;;;;;;6.07;3.95;;;;;;;;;;5011810;28;20054;-77
2023/08/01 02:45:17;;;;;;;6.55;3.70;;;;;;;;;;5011709;28;20042;-77
2023/08/01 02:47:45;;;;;;;6.15;4.25;;;;;;;;;;5013218;28;20054;-78
2023/08/01 02:50:11;;;;;;;7.00;4.68;;;;;;;;;;5015193;28;20048;-77
2023/08/01 02:52:38;;;;;;;7.35;4.50;;;;;;;;;;5015166;28;20054;-78
2023/08/01 02:55:05;;;;;;;6.57;4.28;;;;;;;;;;5016076;28;20057;-79
2023/08/01 02:57:32;;;;;;;7.03;4.13;;;;;;;;;;5028860;28;20072;-78
2023/08/01 02:59:59;;;;;;;6.65;4.43;;;;;;;;;;5030342;28;20476;-79
2023/08/01 03:02:27;;;;;;;5.75;3.88;;;;;;;;;;5022566;28;20053;-79
2023/08/01 03:04:55;;;;;;;7.38;4.70;;;;;;;;;;5023148;28;20054;-79
2023/08/01 03:07:22;;;;;;;6.72;4.15;;;;;;;;;;5022142;28;20136;-79
2023/08/01 03:09:49;;;;;;;7.47;4.28;;;;;;;;;;5022268;28;20054;-79
2023/08/01 03:12:15;;;;;;;7.30;4.55;;;;;;;;;;5023222;28;20050;-79
2023/08/01 03:14:43;;;;;;;6.30;4.32;;;;;;;;;;5022595;28;20068;-79
2023/08/01 03:17:10;;;;;;;7.38;3.88;;;;;;;;;;5022269;28;20041;-78
2023/08/01 03:19:36;;;;;;;5.63;3.92;;;;;;;;;;5021238;28;20049;-79
2023/08/01 03:22:05;;;;;;;6.30;4.13;;;;;;;;;;5020906;28;20136;-79
2023/08/01 03:24:31;;;;;;;5.18;3.38;;;;;;;;;;5020547;28;20080;-79
2023/08/01 03:26:58;;;;;;;4.97;2.95;;;;;;;;;;5020691;28;20085;-79
2023/08/01 03:29:24;;;;;;;5.35;3.20;;;;;;;;;;5021728;28;20042;-79
2023/08/01 03:31:51;;;;;;;4.65;2.92;;;;;;;;;;5021703;28;20046;-79
2023/08/01 03:34:18;;;;;;;4.97;2.55;;;;;;;;;;5018554;28;20567;-78
2023/08/01 03:36:44;;;;;;;4.60;2.67;;;;;;;;;;5018275;28;20050;-78
2023/08/01 03:39:12;;;;;;;6.30;2.90;;;;;;;;;;5017968;28;20416;-78
2023/08/01 03:41:39;;;;;;;5.15;3.00;;;;;;;;;;5017401;28;20568;-78
2023/08/01 03:44:05;;;;;;;5.10;2.90;;;;;;;;;;5017856;28;20049;-79
2023/08/01 03:46:32;;;;;;;4.90;2.85;;;;;;;;;;5017576;28;20057;-79
2023/08/01 03:48:58;;;;;;;5.35;3.60;;;;;;;;;;5017503;28;20050;-78
2023/08/01 03:51:25;;;;;;;5.63;3.50;;;;;;;;;;5016738;28;20053;-79
2023/08/01 03:53:52;;;;;;;6.40;3.40;;;;;;;;;;5016757;28;20077;-79
2023/08/01 03:56:20;;;;;;;5.43;3.38;;;;;;;;;;5017574;28;20100;-77
2023/08/01 03:58:46;;;;;;;6.10;3.10;;;;;;;;;;5017259;28;20148;-78
2023/08/01 04:01:13;;;;;;;5.45;2.80;;;;;;;;;;5017674;28;20520;-79
2023/08/01 04:03:39;;;;;;;5.75;3.85;;;;;;;;;;5017256;28;20054;-78
2023/08/01 04:06:06;;;;;;;7.32;3.33;;;;;;;;;;5018106;28;20049;-78
2023/08/01 04:08:32;;;;;;;5.93;3.72;;;;;;;;;;5031748;28;20057;-79
2023/08/01 04:10:59;;;;;;;5.68;3.33;;;;;;;;;;5024490;28;20356;-78
2023/08/01 04:13:27;;;;;;;7.10;3.30;;;;;;;;;;5017363;28;20046;-78
2023/08/01 04:15:53;;;;;;;6.28;3.53;;;;;;;;;;5016693;28;20046;-79
2023/08/01 04:18:20;;;;;;;6.45;3.58;;;;;;;;;;5016851;28;20054;-78
2023/08/01 04:20:47;;;;;;;6.85;3.55;;;;;;;;;;5016853;28;20049;-78
2023/08/01 04:23:13;;;;;;;6.38;3.63;;;;;;;;;;5011623;28;20439;-77
2023/08/01 04:25:41;;;;;;;5.10;2.88;;;;;;;;;;5007320;28;20041;-78
2023/08/01 04:28:08;;;;;;;6.30;3.63;;;;;;;;;;5011410;28;20049;-78
2023/08/01 04:30:38;;;;;;;6.65;3.30;;;;;;;;;;5010104;28;20465;-78
2023/08/01 04:33:04;;;;;;;5.05;3.33;;;;;;;;;;5015138;28;20079;-78
2023/08/01 04:35:31;;;;;;;5.50;3.33;;;;;;;;;;5015854;28;20046;-78
2023/08/01 04:37:58;;;;;;;6.70;3.60;;;;;;;;;;5015052;28;20042;-77
2023/08/01 04:40:24;;;;;;;5.97;3.63;;;;;;;;;;5016299;28;20052;-78
2023/08/01 04:42:51;;;;;;;8.43;3.78;;;;;;;;;;5015538;28;20073;-78
2023/08/01 04:45:18;;;;;;;5.78;3.30;;;;;;;;;;5014927;28;20496;-78
2023/08/01 04:47:45;;;;;;;5.82;3.30;;;;;;;;;;5009519;28;20397;-78
2023/08/01 04:50:12;;;;;;;5.78;3.67;;;;;;;;;;5014203;28;20180;-78
2023/08/01 04:52:38;;;;;;;6.15;3.47;;;;;;;;;;5013865;28;20052;-78
2023/08/01 04:55:06;;;;;;;7.00;3.38;;;;;;;;;;5015482;28;20129;-79
2023/08/01 04:57:33;;;;;;;6.07;3.30;;;;;;;;;;5015002;28;20050;-78
2023/08/01 05:00:00;;;;;;;5.78;3.65;;;;;;;;;;5015192;28;20046;-77
2023/08/01 05:02:26;;;;;;;6.72;3.47;;;;;;;;;;5015661;28;20049;-77
2023/08/01 05:04:54;;;;;;;7.43;3.58;;;;;;;;;;5016042;28;20045;-77
2023/08/01 05:07:21;;;;;;;6.90;3.85;;;;;;;;;;5015001;28;20061;-78
2023/08/01 05:09:47;;;;;;;6.18;3.58;;;;;;;;;;5014833;28;20076;-78
2023/08/01 05:12:14;;;;;;;6.82;3.63;;;;;;;;;;5014601;28;20500;-78
2023/08/01 05:14:40;;;;;;;8.05;4.00;;;;;;;;;;5015179;28;20053;-78
2023/08/01 05:17:07;;;;;;;7.10;3.97;;;;;;;;;;5018332;28;20049;-78
2023/08/01 05:19:33;;;;;;;7.22;4.55;;;;;;;;;;5016510;28;20042;-78
2023/08/01 05:22:01;;;;;;;9.85;4.10;;;;;;;;;;5017342;28;20132;-79
2023/08/01 05:24:28;;;;;;;8.13;4.65;;;;;;;;;;5018333;28;20050;-79
2023/08/01 05:26:54;;;;;;;12.65;5.75;;;;;;;;;;5018380;28;20049;-79
2023/08/01 05:29:21;;;;;;;8.00;4.95;;;;;;;;;;5018219;28;20503;-78
2023/08/01 05:31:48;;;;;;;8.65;5.07;;;;;;;;;;5018448;28;20049;-79
2023/08/01 05:34:14;;;;;;;8.63;5.22;;;;;;;;;;5019638;28;20070;-79
2023/08/01 05:36:41;;;;;;;9.30;5.25;;;;;;;;;;5019677;28;20109;-79
2023/08/01 05:39:09;;;;;;;7.15;4.50;;;;;;;;;;5017918;28;20105;-79
2023/08/01 05:41:36;;;;;;;8.18;4.82;;;;;;;;;;5015241;28;20049;-79
2023/08/01 05:44:03;;;;;;;8.05;4.07;;;;;;;;;;5015430;28;20060;-79
2023/08/01 05:46:29;;;;;;;6.68;3.72;;;;;;;;;;5015483;28;20053;-78
2023/08/01 05:48:56;;;;;;;7.18;3.55;;;;;;;;;;5033359;22;20129;-76
2023/08/01 05:51:23;;;;;;;6.57;3.45;;;;;;;;;;5022407;28;20054;-77
2023/08/01 05:53:49;;;;;;;7.10;4.07;;;;;;;;;;5017234;28;20050;-77
2023/08/01 05:56:17;;;;;;;6.68;3.97;;;;;;;;;;5014257;28;20046;-77
2023/08/01 05:58:44;;;;;;;5.70;3.38;;;;;;;;;;5014598;28;20056;-77
2023/08/01 06:01:11;;;;;;;7.30;3.25;;;;;;;;;;5014382;28;20092;-77
2023/08/01 06:03:38;;;;;;;6.75;3.53;;;;;;;;;;5013792;28;20049;-77
2023/08/01 06:06:05;;;;;;;7.95;3.95;;;;;;;;;;5012205;28;20412;-77
2023/08/01 06:08:31;;;;;;;6.85;3.47;;;;;;;;;;5012751;28;20046;-76
2023/08/01 06:10:58;;;;;;;5.20;2.97;;;;;;;;;;5012764;28;20042;-77
2023/08/01 06:13:26;;;;;;;7.22;3.42;;;;;;;;;;5012840;28;20041;-77
2023/08/01 06:15:52;;;;;;;6.20;3.75;;;;;;;;;;5013424;28;20054;-77
2023/08/01 06:18:19;;;;;;;5.68;3.42;;;;;;;;;;5014760;28;20053;-77
2023/08/01 06:20:46;;;;;;;7.60;3.13;;;;;;;;;;5014874;28;20041;-77
2023/08/01 06:23:12;;;;;;;5.35;3.10;;;;;;;;;;5014661;28;20072;-75
2023/08/01 06:25:39;;;;;;;6.93;3.47;;;;;;;;;;5015643;28;20100;-78
2023/08/01 06:28:05;;;;;;;6.50;3.55;;;;;;;;;;5014956;28;20057;-76
2023/08/01 06:30:33;;;;;;;6.10;3.22;;;;;;;;;;5012691;28;20046;-77
2023/08/01 06:33:00;;;;;;;6.50;3.17;;;;;;;;;;5014952;28;20050;-77
2023/08/01 06:35:29;;;;;;;7.50;3.38;;;;;;;;;;5014618;28;20125;-77
2023/08/01 06:37:56;;;;;;;6.47;3.37;;;;;;;;;;5012442;28;20503;-77
2023/08/01 06:40:22;;;;;;;7.38;3.25;;;;;;;;;;5012373;28;20049;-77
2023/08/01 06:42:49;;;;;;;5.35;3.40;;;;;;;;;;5012616;28;20397;-78
2023/08/01 06:45:16;;;;;;;6.05;3.13;;;;;;;;;;5012527;28;20046;-77
2023/08/01 06:47:44;;;;;;;6.00;3.00;;;;;;;;;;5009977;28;20516;-77
2023/08/01 06:50:11;;;;;;;5.75;2.65;;;;;;;;;;5010937;28;20050;-76
2023/08/01 06:52:38;;;;;;;5.95;2.83;;;;;;;;;;5010189;28;20050;-77
2023/08/01 06:55:08;;;;;;;5.28;2.75;;;;;;;;;;5010202;28;20046;-77
2023/08/01 06:57:34;;;;;;;5.85;3.20;;;;;;;;;;5010325;28;20050;-78
2023/08/01 07:00:01;;;;;;;5.25;2.75;;;;;;;;;;5010075;28;20053;-77
2023/08/01 07:02:27;;;;;;;5.30;2.70;;;;;;;;;;5010188;28;20049;-76
2023/08/01 07:04:55;;;;;;;5.43;3.00;;;;;;;;;;5011737;28;20045;-76
2023/08/01 07:07:22;;;;;;;5.07;2.90;;;;;;;;;;5012525;28;20100;-76
2023/08/01 07:09:49;;;;;;;6.20;3.00;;;;;;;;;;5012789;28;20045;-76
2023/08/01 07:12:15;;;;;;;6.38;2.85;;;;;;;;;;5011776;28;20518;-77
2023/08/01 07:14:42;;;;;;;5.85;3.00;;;;;;;;;;5012283;28;20091;-77
2023/08/01 07:17:09;;;;;;;5.22;2.92;;;;;;;;;;5011840;28;20056;-77
2023/08/01 07:19:35;;;;;;;7.18;3.83;;;;;;;;;;5012321;28;20050;-76
2023/08/01 07:22:04;;;;;;;8.07;2.97;;;;;;;;;;5011687;28;20081;-76
2023/08/01 07:24:30;;;;;;;5.38;2.63;;;;;;;;;;5011810;28;20120;-76
2023/08/01 07:26:57;;;;;;;4.97;2.63;;;;;;;;;;5011828;28;20046;-76
2023/08/01 07:29:23;;;;;;;5.35;2.70;;;;;;;;;;5011900;28;20064;-76
2023/08/01 07:31:50;;;;;;;4.80;2.90;;;;;;;;;;5012053;28;20056;-74
2023/08/01 07:34:16;;;;;;;6.03;3.05;;;;;;;;;;5011389;28;20050;-76
2023/08/01 07:36:43;;;;;;;5.15;2.60;;;;;;;;;;5012302;28;20065;-77
2023/08/01 07:39:11;;;;;;;5.90;3.20;;;;;;;;;;5011907;28;20409;-77
2023/08/01 07:41:37;;;;;;;5.13;2.75;;;;;;;;;;5011360;28;20061;-77
2023/08/01 07:44:04;;;;;;;5.50;2.97;;;;;;;;;;5012913;28;20363;-77
2023/08/01 07:46:32;;;;;;;6.43;3.00;;;;;;;;;;5015210;28;20046;-77
2023/08/01 07:48:59;;;;;;;6.40;2.75;;;;;;;;;;5012797;28;20056;-77
2023/08/01 07:51:26;;;;;;;4.70;2.65;;;;;;;;;;5012710;28;20038;-76
2023/08/01 07:53:54;;;;;;;5.43;2.75;;;;;;;;;;5014514;28;20052;-76
2023/08/01 07:56:22;;;;;;;4.55;2.53;;;;;;;;;;5012666;28;20393;-74
2023/08/01 07:58:48;;;;;;;4.90;2.65;;;;;;;;;;5014957;28;20056;-80
2023/08/01 08:01:15;;;;;;;5.30;2.65;;;;;;;;;;5015105;28;20045;-79
2023/08/01 08:03:41;;;;;;;5.47;3.20;;;;;;;;;;5018335;28;20057;-77
2023/08/01 08:06:08;;;;;;;6.45;3.40;;;;;;;;;;5020735;28;20061;-77
2023/08/01 08:08:36;;;;;;;6.75;3.40;;;;;;;;;;5021115;28;20072;-80
2023/08/01 08:11:03;;;;;;;5.80;3.20;;;;;;;;;;5018666;28;20046;-77
2023/08/01 08:13:31;;;;;;;11.88;4.57;;;;;;;;;;5010681;28;20155;-77
2023/08/01 08:15:58;;;;;;;6.53;3.63;;;;;;;;;;5010905;28;20045;-77
2023/08/01 08:18:24;;;;;;;11.65;5.85;;;;;;;;;;5012354;28;20069;-77
2023/08/01 08:20:51;;;;;;;5.75;2.83;;;;;;;;;;5012047;28;20128;-77
2023/08/01 08:23:19;;;;;;;6.35;2.90;;;;;;;;;;5011612;28;20046;-76
2023/08/01 08:25:46;;;;;;;5.75;3.00;;;;;;;;;;5011351;28;20424;-77
2023/08/01 08:28:13;;;;;;;5.15;2.72;;;;;;;;;;5011452;28;20123;-77
2023/08/01 08:30:41;;;;;;;5.90;2.70;;;;;;;;;;5008377;28;20078;-77
2023/08/01 08:33:08;;;;;;;8.25;2.78;;;;;;;;;;5010538;28;20046;-77
2023/08/01 08:35:35;;;;;;;5.75;2.97;;;;;;;;;;5010918;28;20054;-78
2023/08/01 08:38:03;;;;;;;5.45;3.15;;;;;;;;;;5008612;28;20500;-77
2023/08/01 08:40:30;;;;;;;5.82;3.05;;;;;;;;;;5005635;28;20048;-78
2023/08/01 08:42:58;;;;;;;7.53;3.00;;;;;;;;;;5009732;28;20056;-77
2023/08/01 08:45:25;;;;;;;6.80;3.05;;;;;;;;;;5008913;28;20289;-78
2023/08/01 08:48:01;;;;;;;4.97;2.67;;;;;;;;;;5008581;28;20138;-77
2023/08/01 08:50:28;;;;;;;6.60;2.88;;;;;;;;;;5010810;28;20057;-77
2023/08/01 08:52:55;;;;;;;6.43;2.80;;;;;;;;;;5010203;28;20041;-77
2023/08/01 08:55:22;;;;;;;5.50;2.38;;;;;;;;;;5009476;28;20053;-77
2023/08/01 08:57:52;;;;;;;4.28;2.42;;;;;;;;;;5011042;28;20053;-77
2023/08/01 09:00:19;;;;;;;6.40;2.90;;;;;;;;;;5010788;28;20073;-77
2023/08/01 09:02:46;;;;;;;5.35;2.78;;;;;;;;;;5008784;28;20104;-78
2023/08/01 09:05:14;;;;;;;4.85;2.72;;;;;;;;;;5010073;28;20061;-77
2023/08/01 09:07:43;;;;;;;5.63;2.97;;;;;;;;;;5009786;28;20397;-78
2023/08/01 09:10:10;;;;;;;7.68;3.15;;;;;;;;;;5010473;28;20069;-78
2023/08/01 09:12:37;;;;;;;6.30;3.30;;;;;;;;;;5009028;28;20143;-77
2023/08/01 09:15:03;;;;;;;4.95;3.13;;;;;;;;;;5009717;28;20041;-77
2023/08/01 09:17:30;;;;;;;5.55;3.13;;;;;;;;;;5009298;28;20508;-77
2023/08/01 09:20:03;;;;;;;5.43;3.03;;;;;;;;;;5010016;28;20575;-77
2023/08/01 09:22:42;;;;;;;6.70;2.78;;;;;;;;;;5008366;28;20052;-77
2023/08/01 09:25:09;;;;;;;5.43;3.10;;;;;;;;;;5007330;28;20050;-77
2023/08/01 09:27:35;;;;;;;5.72;2.70;;;;;;;;;;5009772;28;20061;-77
2023/08/01 09:30:07;;;;;;;5.85;2.97;;;;;;;;;;5009358;28;20416;-76
2023/08/01 09:32:34;;;;;;;6.70;2.97;;;;;;;;;;5006706;28;20045;-76
2023/08/01 09:35:00;;;;;;;6.15;2.90;;;;;;;;;;5009754;28;20495;-77
2023/08/01 09:37:27;;;;;;;5.10;2.70;;;;;;;;;;5009567;28;20129;-76
2023/08/01 09:39:55;;;;;;;5.15;3.05;;;;;;;;;;5008737;28;20042;-77
2023/08/01 09:42:22;;;;;;;5.68;2.72;;;;;;;;;;5008926;28;20050;-77
2023/08/01 09:44:49;;;;;;;6.68;3.17;;;;;;;;;;5008002;28;20050;-77
2023/08/01 09:47:17;;;;;;;5.93;3.10;;;;;;;;;;5008630;28;20056;-77
2023/08/01 09:49:49;;;;;;;5.40;2.95;;;;;;;;;;5007911;28;20053;-76
2023/08/01 09:52:16;;;;;;;6.43;2.97;;;;;;;;;;5008632;28;20475;-77
2023/08/01 09:54:43;;;;;;;5.53;2.65;;;;;;;;;;5007452;28;20069;-77
2023/08/01 09:57:11;;;;;;;5.68;3.00;;;;;;;;;;5008355;28;20041;-77
2023/08/01 09:59:38;;;;;;;6.30;2.90;;;;;;;;;;5007710;28;20046;-76
2023/08/01 10:02:10;;;;;;;5.22;2.90;;;;;;;;;;5006989;28;20121;-77
2023/08/01 10:04:40;;;;;;;4.75;2.65;;;;;;;;;;5006500;28;20056;-77
2023/08/01 10:07:11;;;;;;;5.10;2.67;;;;;;;;;;5005584;28;20519;-77
2023/08/01 10:09:38;;;;;;;6.38;3.08;;;;;;;;;;5004988;28;20045;-77
2023/08/01 10:12:07;;;;;;;5.28;2.90;;;;;;;;;;5006236;28;20546;-77
2023/08/01 10:14:36;;;;;;;4.97;2.88;;;;;;;;;;5007686;28;20042;-77
2023/08/01 10:17:03;;;;;;;5.63;2.72;;;;;;;;;;5009343;28;20124;-76
2023/08/01 10:19:33;;;;;;;5.95;3.33;;;;;;;;;;5011015;28;20046;-77
2023/08/01 10:22:00;;;;;;;6.30;2.83;;;;;;;;;;5011099;28;20060;-77
2023/08/01 10:24:29;;;;;;;5.30;2.65;;;;;;;;;;5011533;28;20108;-79
2023/08/01 10:26:56;;;;;;;5.60;2.53;;;;;;;;;;5010959;28;20121;-78
2023/08/01 10:29:22;;;;;;;3.90;2.10;;;;;;;;;;5010627;28;20052;-78
2023/08/01 10:31:54;;;;;;;6.15;2.55;;;;;;;;;;5011486;28;20531;-76
2023/08/01 10:34:22;;;;;;;5.18;2.83;;;;;;;;;;5012560;28;20054;-78
2023/08/01 10:36:56;;;;;;;4.97;2.75;;;;;;;;;;5009211;28;20046;-79
2023/08/01 10:39:23;;;;;;;5.03;2.22;;;;;;;;;;5014763;28;20046;-79
2023/08/01 10:41:58;;;;;;;6.45;2.65;;;;;;;;;;5014699;28;20069;-79
2023/08/01 10:44:26;;;;;;;5.07;3.42;;;;;;;;;;5015812;28;20053;-79
2023/08/01 10:46:55;;;;;;;5.90;3.25;;;;;;;;;;5015607;28;20221;-80
2023/08/01 10:49:34;;;;;;;5.07;2.67;;;;;;;;;;5009163;28;20130;-78
2023/08/01 10:52:01;;;;;;;5.80;2.60;;;;;;;;;;5012830;28;20070;-79
2023/08/01 10:54:28;;;;;;;6.03;3.17;;;;;;;;;;5012482;28;20485;-78
2023/08/01 10:56:58;;;;;;;5.57;2.70;;;;;;;;;;5007509;28;20073;-78
2023/08/01 10:59:25;;;;;;;5.07;2.70;;;;;;;;;;5011397;28;20061;-79
2023/08/01 11:01:54;;;;;;;5.85;2.88;;;;;;;;;;5003350;28;20052;-74
2023/08/01 11:04:22;;;;;;;5.40;2.60;;;;;;;;;;5007493;28;20049;-76
2023/08/01 11:06:50;;;;;;;6.50;2.85;;;;;;;;;;5009972;28;20050;-75
2023/08/01 11:09:19;;;;;;;5.00;2.60;;;;;;;;;;5007218;28;20050;-77
2023/08/01 11:11:46;;;;;;;4.30;2.20;;;;;;;;;;5007274;28;20046;-75
2023/08/01 11:14:14;;;;;;;5.90;2.38;;;;;;;;;;5005090;28;20046;-78
2023/08/01 11:16:41;;;;;;;4.20;2.88;;;;;;;;;;5010750;28;20045;-78
2023/08/01 11:19:19;;;;;;;5.13;2.08;;;;;;;;;;5013082;28;20544;-78
2023/08/01 11:21:45;;;;;;;4.20;1.98;;;;;;;;;;5013007;28;20041;-77
2023/08/01 11:24:12;;;;;;;3.20;1.52;;;;;;;;;;5015858;28;20069;-77
2023/08/01 11:26:42;;;;;;;4.55;2.08;;;;;;;;;;5011618;28;20049;-82
2023/08/01 11:29:08;;;;;;;3.70;2.10;;;;;;;;;;5008186;28;20046;-82
2023/08/01 11:31:35;;;;;;;4.88;2.58;;;;;;;;;;5013868;28;20053;-83
2023/08/01 11:34:02;;;;;;;3.90;2.15;;;;;;;;;;5009768;28;21026;-79
2023/08/01 11:36:30;;;;;;;4.35;2.00;;;;;;;;;;5015842;28;20045;-78
2023/08/01 11:38:59;;;;;;;5.47;2.17;;;;;;;;;;5015027;28;20064;-81
2023/08/01 11:41:26;;;;;;;4.25;1.95;;;;;;;;;;5015214;28;20049;-78
2023/08/01 11:43:54;;;;;;;4.22;2.25;;;;;;;;;;5014739;28;20057;-77
2023/08/01 11:46:21;;;;;;;4.70;1.90;;;;;;;;;;5021092;28;20042;-78
2023/08/01 11:48:49;;;;;;;5.65;2.40;;;;;;;;;;5014551;28;20071;-78
2023/08/01 11:51:16;;;;;;;4.68;2.30;;;;;;;;;;5029273;22;20046;-59
2023/08/01 11:53:44;;;;;;;3.85;2.00;;;;;;;;;;4991802;28;20069;-58
2023/08/01 11:56:20;;;;;;;4.30;1.90;;;;;;;;;;4969317;28;20381;-59
2023/08/01 11:58:47;;;;;;;4.70;2.13;;;;;;;;;;4989151;28;20166;-58
2023/08/01 12:01:14;;;;;;;4.57;2.20;;;;;;;;;;4978025;28;20052;-56
2023/08/01 12:03:45;;;;;;;4.82;2.15;;;;;;;;;;4974387;28;20251;-58
2023/08/01 12:06:13;;;;;;;4.88;2.63;;;;;;;;;;4975900;28;20055;-59
2023/08/01 12:08:40;;;;;;;4.82;2.55;;;;;;;;;;4971060;28;20049;-58
2023/08/01 12:11:18;;;;;;;4.82;2.13;;;;;;;;;;4970772;28;20142;-58
2023/08/01 12:13:45;;;;;;;4.47;2.63;;;;;;;;;;4968073;28;20820;-58
2023/08/01 12:16:12;;;;;;;5.55;2.25;;;;;;;;;;4966307;28;20484;-58
2023/08/01 12:18:40;;;;;;;5.05;2.53;;;;;;;;;;4970049;28;20047;-58
2023/08/01 12:21:06;;;;;;;3.88;2.08;;;;;;;;;;4974600;28;20046;-59
2023/08/01 12:23:33;;;;;;;4.82;2.20;;;;;;;;;;4973173;28;20191;-57
2023/08/01 12:26:00;;;;;;;4.88;2.40;;;;;;;;;;4975783;28;20335;-59
2023/08/01 12:28:28;;;;;;;4.00;2.25;;;;;;;;;;4977524;28;20074;-59
2023/08/01 12:30:58;;;;;;;4.35;2.30;;;;;;;;;;4977943;28;20137;-58
2023/08/01 12:33:25;;;;;;;;;;;;;;;;;;4973966;28;20046;-58
2023/08/01 12:35:51;;;;;;;4.20;2.08;;;;;;;;;;4982522;28;19929;-59
2023/08/01 12:38:18;;;;;;;5.10;2.50;;;;;;;;;;4968093;28;20062;-58
2023/08/01 12:40:44;;;;;;;4.85;2.10;;;;;;;;;;4973888;28;20081;-59
2023/08/01 12:43:11;;;;;;;3.78;2.10;;;;;;;;;;4963575;28;20126;-58
2023/08/01 12:45:39;;;;;;;4.32;2.25;;;;;;;;;;4971349;28;20049;-58
2023/08/01 12:48:06;;;;;;;4.45;1.98;;;;;;;;;;4975091;28;20049;-58
2023/08/01 12:50:32;;;;;;;4.00;2.30;;;;;;;;;;4974743;28;20638;-59
2023/08/01 12:52:59;;;;;;;5.22;2.15;;;;;;;;;;4966187;28;20051;-58
2023/08/01 12:55:25;;;;;;;4.47;1.85;;;;;;;;;;4967545;28;20039;-58
2023/08/01 12:57:52;;;;;;;4.28;2.03;;;;;;;;;;4964192;28;20047;-58
2023/08/01 13:00:19;;;;;;;5.05;2.10;;;;;;;;;;4973761;28;20517;-59
2023/08/01 13:02:47;;;;;;;4.20;2.20;;;;;;;;;;4974980;28;20049;-57
2023/08/01 13:05:14;;;;;;;3.75;2.30;;;;;;;;;;4964465;28;20479;-59
2023/08/01 13:07:40;;;;;;;3.58;1.95;;;;;;;;;;4966127;28;20130;-59
2023/08/01 13:10:07;;;;;;;4.00;1.77;;;;;;;;;;4966964;28;20496;-58
2023/08/01 13:12:34;;;;;;;4.38;1.98;;;;;;;;;;4965379;28;20130;-59
2023/08/01 13:15:01;;;;;;;4.10;2.00;;;;;;;;;;4969715;28;20051;-59
2023/08/01 13:17:27;;;;;;;3.95;1.73;;;;;;;;;;4974501;28;20046;-59
2023/08/01 13:19:55;;;;;;;4.68;1.98;;;;;;;;;;4981815;28;20140;-59
2023/08/01 13:22:22;;;;;;;3.53;1.80;;;;;;;;;;4975818;28;20050;-59
2023/08/01 13:24:48;;;;;;;3.55;2.00;;;;;;;;;;4977304;28;20065;-58
2023/08/01 13:27:15;;;;;;;4.20;2.00;;;;;;;;;;4972129;28;20058;-59
2023/08/01 13:29:41;;;;;;;4.75;2.05;;;;;;;;;;4968263;28;20530;-59
2023/08/01 13:32:08;;;;;;;4.43;2.40;;;;;;;;;;4969248;28;20542;-59
2023/08/01 13:34:35;;;;;;;4.40;2.45;;;;;;;;;;4972031;28;20398;-59
2023/08/01 13:37:03;;;;;;;4.53;2.20;;;;;;;;;;4963708;28;20047;-59
2023/08/01 13:39:30;;;;;;;5.05;2.15;;;;;;;;;;4971328;28;20054;-59
2023/08/01 13:41:56;;;;;;;4.57;2.00;;;;;;;;;;4976037;28;20069;-59
2023/08/01 13:44:23;;;;;;;3.80;1.90;;;;;;;;;;4977140;28;20078;-58
2023/08/01 13:46:49;;;;;;;4.50;1.98;;;;;;;;;;4971475;28;20050;-59
2023/08/01 13:49:16;;;;;;;3.97;1.90;;;;;;;;;;4964338;28;20051;-60
2023/08/01 13:51:43;;;;;;;4.32;1.90;;;;;;;;;;4965206;28;20508;-59
2023/08/01 13:54:10;;;;;;;4.35;1.85;;;;;;;;;;4970008;28;20051;-59
2023/08/01 13:56:37;;;;;;;4.80;2.00;;;;;;;;;;4965148;28;20423;-59
2023/08/01 13:59:04;;;;;;;3.45;1.65;;;;;;;;;;4972812;28;20056;-58
2023/08/01 14:01:30;;;;;;;3.50;1.73;;;;;;;;;;4969587;28;20101;-59
2023/08/01 14:03:57;;;;;;;5.68;2.30;;;;;;;;;;4976378;28;20043;-59
2023/08/01 14:06:24;;;;;;;4.20;1.70;;;;;;;;;;4974434;28;20061;-59
2023/08/01 14:08:51;;;;;;;4.40;2.00;;;;;;;;;;4969941;28;20065;-60
2023/08/01 14:11:19;;;;;;;4.75;2.35;;;;;;;;;;4980024;28;20066;-59
2023/08/01 14:13:45;;;;;;;5.05;2.90;;;;;;;;;;4972014;28;20046;-59
2023/08/01 14:16:12;;;;;;;4.60;2.45;;;;;;;;;;4980517;28;20053;-58
2023/08/01 14:18:38;;;;;;;4.53;2.50;;;;;;;;;;4969607;28;20058;-59
2023/08/01 14:21:06;;;;;;;5.25;2.10;;;;;;;;;;4960410;28;20043;-59
2023/08/01 14:23:33;;;;;;;4.63;2.00;;;;;;;;;;4964630;28;20503;-58
2023/08/01 14:25:59;;;;;;;4.47;2.40;;;;;;;;;;4964747;28;20043;-59
2023/08/01 14:28:27;;;;;;;4.63;2.38;;;;;;;;;;4957408;28;20134;-59
2023/08/01 14:30:54;;;;;;;4.85;2.20;;;;;;;;;;4974028;28;20139;-59
2023/08/01 14:33:20;;;;;;;5.28;1.92;;;;;;;;;;4973241;28;20051;-59
2023/08/01 14:35:47;;;;;;;3.67;1.80;;;;;;;;;;4983133;28;20093;-59
2023/08/01 14:38:14;;;;;;;3.58;1.52;;;;;;;;;;4978886;28;20400;-59
2023/08/01 14:40:40;;;;;;;3.38;1.42;;;;;;;;;;4970567;28;20081;-59
2023/08/01 14:43:07;;;;;;;3.67;1.95;;;;;;;;;;4979248;28;20047;-58